This is the latest recevied weather packets stored in our database for station/object ALANSN-2. If no packets are shown the sender has not sent any weather packets the latest 10 day(s).
| Time | Temp. | Humidity | Pressure | Rain* | Wind** | Luminosity | Snow |
|---|---|---|---|---|---|---|---|
| 1777941302 | 10° C | 98% | 1002.7 hPa | 0 mm | - | 2 W/m² | - |
| 1777937102 | 12.22° C | 85% | 1001.4 hPa | 1.78 mm | - | 8 W/m² | - |
| 1777934702 | 20° C | 53% | 999.2 hPa | 0 mm | - | 21 W/m² | - |
| 1777931102 | 21.11° C | 43% | 998.6 hPa | 0 mm | - | 171 W/m² | - |
| 1777928702 | 21.67° C | 44% | 998.8 hPa | 0 mm | - | 425 W/m² | - |
| 1777925702 | 21.11° C | 42% | 998.7 hPa | 0 mm | - | 177 W/m² | - |
| 1777919702 | 21.11° C | 41% | 999.1 hPa | 0 mm | - | 290 W/m² | - |
| 1777909202 | 18.33° C | 47% | 1001.9 hPa | 0 mm | - | 490 W/m² | - |
| 1777908302 | 17.78° C | 49% | 1002.4 hPa | 0 mm | - | 614 W/m² | - |
| 1777907102 | 17.22° C | 51% | 1002.8 hPa | 0 mm | - | 593 W/m² | - |
| 1777905301 | 16.11° C | 59% | 1003 hPa | 0 mm | - | 319 W/m² | - |
| 1777901102 | 11.67° C | 82% | 1004.7 hPa | 0 mm | - | 342 W/m² | - |
| 1777900502 | 10° C | 99% | 1004.9 hPa | 0 mm | - | 810 W/m² | - |
| 1777898102 | 8.33° C | 99% | 1005.7 hPa | 0 mm | - | 109 W/m² | - |
| 1777897502 | 7.78° C | 99% | 1006 hPa | 0 mm | - | 101 W/m² | - |
| 1777896602 | 5.56° C | 99% | 1006.1 hPa | 0 mm | - | 74 W/m² | - |
| 1777895702 | 5° C | 99% | 1006.2 hPa | 0 mm | - | 56 W/m² | - |
| 1777895103 | 4.44° C | 99% | 1006.3 hPa | 0 mm | - | 49 W/m² | - |
| 1777893901 | 3.33° C | 99% | 1006.8 hPa | 0 mm | - | 45 W/m² | - |
| 1777893602 | 2.78° C | 99% | 1006.8 hPa | 0 mm | - | 44 W/m² | - |
| 1777893002 | 2.22° C | 99% | 1006.8 hPa | 0 mm | - | 37 W/m² | - |
| 1777892701 | 1.67° C | 99% | 1006.8 hPa | 0 mm | - | 29 W/m² | - |
| 1777892102 | 1.67° C | 99% | 1006.8 hPa | 0 mm | - | 18 W/m² | - |
| 1777890902 | 1.11° C | 99% | 1007 hPa | 0 mm | - | 6 W/m² | - |
| 1777890301 | 1.11° C | 99% | 1007.3 hPa | 0 mm | - | 3 W/m² | - |
* Rain latest hour (hover to see other rain measurements)
** Current wind speed in m/s (hover to see current wind gust speed)